Time;durP1;ratioP1;P1;durP2;ratioP2;P2;SDS_P1;SDS_P2;PMS_P1;PMS_P2;Temp;Humidity;BMP_temperature;BMP_pressure;BME280_temperature;BME280_humidity;BME280_pressure;Samples;Min_cycle;Max_cycle;Signal;HPM_P1;HPM_P2
2023/12/28 00:01:47;;;;;;;9.23;2.65;;;;;;;5.31;93.45;100696.97;5048227;28;20037;-64
2023/12/28 00:04:12;;;;;;;7.97;2.27;;;;;;;5.29;93.44;100702.09;5048372;28;20025;-66
2023/12/28 00:06:37;;;;;;;10.10;2.83;;;;;;;5.28;93.65;100684.56;5048535;28;20033;-70
2023/12/28 00:09:03;;;;;;;8.67;2.93;;;;;;;5.30;93.74;100677.72;5047933;28;20109;-66
2023/12/28 00:11:29;;;;;;;6.80;2.20;;;;;;;5.29;93.54;100668.06;5048674;28;20041;-66
2023/12/28 00:13:54;;;;;;;11.23;2.43;;;;;;;5.32;93.78;100647.31;5048295;28;20116;-67
2023/12/28 00:16:19;;;;;;;10.10;2.67;;;;;;;5.35;93.54;100644.88;5048166;28;20021;-66
2023/12/28 00:18:45;;;;;;;8.37;2.50;;;;;;;5.34;93.61;100652.63;5047708;28;20112;-64
2023/12/28 00:21:13;;;;;;;8.97;2.23;;;;;;;5.34;93.79;100653.53;5047857;28;20275;-65
2023/12/28 00:23:38;;;;;;;8.97;2.60;;;;;;;5.32;93.57;100643.78;5047723;28;20040;-65
2023/12/28 00:26:04;;;;;;;8.67;2.47;;;;;;;5.36;93.72;100645.78;5047783;28;20283;-66
2023/12/28 00:28:29;;;;;;;10.87;2.67;;;;;;;5.35;93.67;100654.44;5047745;28;20112;-69
2023/12/28 00:30:54;;;;;;;9.37;2.20;;;;;;;5.34;93.63;100652.63;5034784;28;20482;-67
2023/12/28 00:33:20;;;;;;;6.45;2.13;;;;;;;5.35;93.63;100639.63;5033490;28;20033;-68
2023/12/28 00:35:45;;;;;;;6.43;1.97;;;;;;;5.35;93.79;100650.09;5047202;28;20435;-67
2023/12/28 00:38:11;;;;;;;6.17;1.93;;;;;;;5.41;93.92;100640.00;5047557;28;20067;-66
2023/12/28 00:40:36;;;;;;;11.27;2.37;;;;;;;5.44;93.67;100627.06;5046158;28;20033;-68
2023/12/28 00:43:02;;;;;;;7.23;2.40;;;;;;;5.48;93.37;100639.53;5047715;28;20481;-67
2023/12/28 00:45:27;;;;;;;7.88;1.92;;;;;;;5.48;93.06;100621.19;5047056;28;20055;-67
2023/12/28 00:47:55;;;;;;;6.63;1.90;;;;;;;5.46;93.27;100625.47;5046169;28;20040;-69
2023/12/28 00:50:20;;;;;;;7.80;2.17;;;;;;;5.42;93.18;100627.81;5047442;28;20432;-67
2023/12/28 00:52:46;;;;;;;7.10;1.87;;;;;;;5.40;93.30;100626.81;5047277;28;20087;-67
2023/12/28 00:55:12;;;;;;;7.13;2.20;;;;;;;5.42;93.50;100623.47;5047077;28;20120;-65
2023/12/28 00:57:37;;;;;;;4.90;1.73;;;;;;;5.49;93.33;100615.16;5047037;28;20544;-67
2023/12/28 01:00:03;;;;;;;6.40;1.90;;;;;;;5.51;93.20;100605.69;5045565;28;20167;-71
2023/12/28 01:02:29;;;;;;;5.22;1.70;;;;;;;5.56;92.93;100626.91;5046934;28;20048;-64
2023/12/28 01:04:54;;;;;;;7.20;2.30;;;;;;;5.61;92.57;100644.72;5045850;28;20025;-64
2023/12/28 01:07:20;;;;;;;6.63;1.77;;;;;;;5.61;92.66;100629.00;5039069;28;20097;-65
2023/12/28 01:09:45;;;;;;;6.67;1.67;;;;;;;5.65;92.40;100635.31;5032188;28;20037;-67
2023/12/28 01:12:10;;;;;;;5.43;1.77;;;;;;;5.72;92.59;100633.94;5031781;28;20156;-63
2023/12/28 01:14:36;;;;;;;7.55;1.75;;;;;;;5.79;92.22;100628.22;5032766;28;20032;-66
2023/12/28 01:17:01;;;;;;;5.27;1.60;;;;;;;5.82;91.64;100621.44;5031401;28;20175;-68
2023/12/28 01:19:26;;;;;;;6.97;1.90;;;;;;;5.81;91.56;100635.38;5031451;28;20050;-69
2023/12/28 01:21:52;;;;;;;8.63;1.77;;;;;;;5.83;91.51;100638.06;5031742;28;20113;-67
2023/12/28 01:24:19;;;;;;;5.90;1.77;;;;;;;5.84;91.58;100635.53;5034278;28;20045;-66
2023/12/28 01:26:44;;;;;;;6.03;1.70;;;;;;;5.87;91.73;100634.88;5032003;28;20112;-64
2023/12/28 01:29:10;;;;;;;6.57;1.60;;;;;;;5.90;91.50;100635.03;5042393;28;20029;-64
2023/12/28 01:31:35;;;;;;;10.33;1.70;;;;;;;5.90;91.27;100624.56;5033005;28;20311;-65
2023/12/28 01:34:00;;;;;;;7.37;1.50;;;;;;;5.91;91.44;100629.91;5032779;28;20052;-64
2023/12/28 01:36:26;;;;;;;5.70;1.70;;;;;;;5.92;91.34;100631.66;5022331;28;20033;-63
2023/12/28 01:38:52;;;;;;;7.45;2.00;;;;;;;5.95;91.19;100642.34;5023404;28;20492;-64
2023/12/28 01:41:18;;;;;;;4.90;1.65;;;;;;;5.94;90.87;100627.44;5031422;28;20084;-66
2023/12/28 01:43:43;;;;;;;5.57;1.60;;;;;;;5.93;91.24;100616.84;5032466;28;20033;-67
2023/12/28 01:46:15;;;;;;;5.28;1.80;;;;;;;5.95;91.09;100610.00;5032292;28;20045;-65
2023/12/28 01:48:42;;;;;;;7.47;1.60;;;;;;;5.99;90.90;100606.72;5032609;28;20033;-66
2023/12/28 01:51:07;;;;;;;9.25;1.83;;;;;;;5.98;90.82;100599.66;5033755;28;20061;-69
2023/12/28 01:53:32;;;;;;;5.67;1.50;;;;;;;5.95;90.59;100587.31;5032596;28;20053;-63
2023/12/28 01:55:59;;;;;;;5.03;1.40;;;;;;;5.91;90.82;100592.28;5032018;28;20046;-66
2023/12/28 01:58:28;;;;;;;4.83;1.73;;;;;;;5.88;90.75;100593.00;5030923;28;20029;-64
2023/12/28 02:00:56;;;;;;;5.28;1.40;;;;;;;5.87;90.89;100587.69;5032054;28;20036;-65
2023/12/28 02:03:21;;;;;;;6.72;1.70;;;;;;;5.88;91.11;100576.38;5030787;28;20045;-69
2023/12/28 02:05:47;;;;;;;6.33;1.53;;;;;;;5.89;90.82;100572.94;5032058;28;20648;-63
2023/12/28 02:08:13;;;;;;;7.15;1.50;;;;;;;5.94;90.32;100545.28;5032497;28;20032;-63
2023/12/28 02:10:40;;;;;;;5.13;1.50;;;;;;;6.02;89.93;100570.19;5032129;28;20037;-64
2023/12/28 02:13:05;;;;;;;5.95;1.27;;;;;;;6.06;89.25;100601.03;5030975;28;20120;-68
2023/12/28 02:15:31;;;;;;;6.97;1.63;;;;;;;6.06;88.63;100604.56;5030382;28;20030;-71
2023/12/28 02:18:06;;;;;;;6.17;0.90;;;;;;;6.15;88.24;100613.72;5030411;28;20449;-64
2023/12/28 02:20:34;;;;;;;6.60;1.27;;;;;;;6.21;87.43;100615.00;5030914;28;20740;-65
2023/12/28 02:23:00;;;;;;;5.22;1.50;;;;;;;6.32;86.80;100616.47;5031632;28;20029;-67
2023/12/28 02:25:25;;;;;;;4.32;1.13;;;;;;;6.45;85.99;100610.19;5029969;28;20091;-64
2023/12/28 02:27:51;;;;;;;4.50;1.20;;;;;;;6.53;85.38;100616.75;5031774;28;20484;-64
2023/12/28 02:30:21;;;;;;;5.68;1.45;;;;;;;6.60;84.85;100616.28;5030246;28;20029;-63
2023/12/28 02:33:01;;;;;;;5.10;1.50;;;;;;;6.73;83.79;100626.63;5031939;28;20104;-64
2023/12/28 02:35:37;;;;;;;7.82;1.42;;;;;;;6.82;83.52;100613.97;5031201;28;20136;-64
2023/12/28 02:38:08;;;;;;;6.38;1.30;;;;;;;6.92;82.68;100615.38;5031445;28;20039;-64
2023/12/28 02:40:39;;;;;;;5.00;1.13;;;;;;;7.01;82.57;100614.94;5030128;28;20037;-64
2023/12/28 02:43:06;;;;;;;5.38;1.20;;;;;;;7.09;82.06;100604.03;5030159;28;20064;-67
2023/12/28 02:45:31;;;;;;;4.73;1.10;;;;;;;7.23;81.21;100613.53;5029923;28;20535;-65
2023/12/28 02:47:57;;;;;;;4.13;1.15;;;;;;;7.35;79.90;100618.53;5031610;28;20037;-64
2023/12/28 02:50:22;;;;;;;3.87;1.10;;;;;;;7.50;78.79;100616.66;5032878;28;20083;-66
2023/12/28 02:52:47;;;;;;;4.63;1.10;;;;;;;7.66;76.92;100615.72;5031338;28;20041;-66
2023/12/28 02:55:14;;;;;;;5.93;1.25;;;;;;;7.81;76.17;100600.72;5016163;28;20034;-64
2023/12/28 02:57:40;;;;;;;5.03;1.10;;;;;;;7.97;74.71;100598.03;5019537;28;20505;-64
2023/12/28 03:00:07;;;;;;;4.03;1.10;;;;;;;8.09;73.47;100588.06;5029499;28;20037;-64
2023/12/28 03:02:32;;;;;;;4.07;1.10;;;;;;;8.17;72.63;100597.25;5029983;28;20040;-67
2023/12/28 03:04:58;;;;;;;6.57;1.20;;;;;;;8.26;72.03;100599.41;5030984;28;20049;-65
2023/12/28 03:07:23;;;;;;;4.27;1.10;;;;;;;8.32;72.05;100612.00;5030026;28;20037;-65
2023/12/28 03:09:48;;;;;;;4.77;0.90;;;;;;;8.39;71.20;100603.53;5030911;28;20045;-66
2023/12/28 03:12:16;;;;;;;5.60;1.50;;;;;;;8.44;71.04;100604.66;5029832;28;20573;-65
2023/12/28 03:14:41;;;;;;;4.90;1.10;;;;;;;8.51;70.52;100598.88;5030553;28;20091;-67
2023/12/28 03:17:07;;;;;;;4.17;1.07;;;;;;;8.57;70.05;100596.53;5030833;28;20029;-66
2023/12/28 03:19:33;;;;;;;4.40;1.00;;;;;;;8.57;69.65;100591.28;5030713;28;20440;-65
2023/12/28 03:21:58;;;;;;;3.60;0.97;;;;;;;8.61;69.47;100601.09;5031073;28;20112;-65
2023/12/28 03:24:23;;;;;;;3.37;0.90;;;;;;;8.68;69.07;100592.66;5030352;28;20299;-65
2023/12/28 03:26:49;;;;;;;5.03;1.00;;;;;;;8.77;68.61;100606.25;5030674;28;20305;-64
2023/12/28 03:29:14;;;;;;;5.33;1.00;;;;;;;8.80;68.08;100609.00;5029248;28;20044;-66
2023/12/28 03:31:42;;;;;;;6.40;1.23;;;;;;;8.80;68.36;100590.56;5029258;28;20037;-68
2023/12/28 03:34:07;;;;;;;3.45;0.75;;;;;;;8.79;68.95;100596.66;5028110;28;20030;-66
2023/12/28 03:36:33;;;;;;;5.60;1.40;;;;;;;8.83;68.54;100613.53;5022208;28;20155;-67
2023/12/28 03:38:58;;;;;;;6.30;0.97;;;;;;;8.88;68.29;100607.63;5030471;28;20558;-64
2023/12/28 03:41:23;;;;;;;4.37;1.33;;;;;;;8.90;68.30;100610.31;5030384;28;20120;-65
2023/12/28 03:43:49;;;;;;;4.27;1.13;;;;;;;8.87;68.65;100605.84;5025588;28;20657;-67
2023/12/28 03:46:14;;;;;;;4.13;1.00;;;;;;;8.88;69.02;100606.75;5016887;28;20111;-65
2023/12/28 03:48:40;;;;;;;4.50;1.00;;;;;;;8.91;68.65;100620.03;5027647;28;20037;-65
2023/12/28 03:51:05;;;;;;;4.37;1.00;;;;;;;8.93;68.62;100631.56;5032064;28;20406;-65
2023/12/28 03:53:31;;;;;;;3.50;1.00;;;;;;;8.93;68.62;100627.16;5029068;28;20040;-68
2023/12/28 03:55:58;;;;;;;5.17;1.20;;;;;;;8.98;68.35;100628.28;5021710;28;20025;-64
2023/12/28 03:58:25;;;;;;;3.92;0.98;;;;;;;8.96;68.47;100618.50;5028908;28;20048;-65
2023/12/28 04:00:50;;;;;;;8.15;1.10;;;;;;;8.93;68.63;100619.25;5028675;28;20042;-65
2023/12/28 04:03:15;;;;;;;5.30;1.17;;;;;;;8.97;68.45;100623.88;5029293;28;20029;-67
2023/12/28 04:05:43;;;;;;;4.43;0.97;;;;;;;8.95;68.86;100619.34;5029914;28;20116;-71
2023/12/28 04:08:08;;;;;;;4.15;0.88;;;;;;;8.94;69.16;100620.16;5028858;28;20125;-65
2023/12/28 04:10:34;;;;;;;4.73;0.90;;;;;;;8.95;68.78;100620.25;5029850;28;20112;-65
2023/12/28 04:13:00;;;;;;;4.03;1.07;;;;;;;8.95;68.76;100622.88;5029925;28;20025;-69
2023/12/28 04:15:26;;;;;;;3.80;0.88;;;;;;;8.96;68.58;100619.41;5028661;28;20390;-67
2023/12/28 04:17:51;;;;;;;4.47;0.90;;;;;;;8.99;68.25;100618.63;5030236;28;20037;-70
2023/12/28 04:20:17;;;;;;;4.53;1.00;;;;;;;9.01;68.25;100623.16;5029864;28;20468;-64
2023/12/28 04:22:44;;;;;;;4.65;1.08;;;;;;;9.02;68.43;100624.97;5028684;28;20042;-65
2023/12/28 04:25:10;;;;;;;4.20;1.15;;;;;;;9.04;68.24;100635.56;5029762;28;20025;-66
2023/12/28 04:27:36;;;;;;;4.10;0.97;;;;;;;9.10;67.73;100641.09;5028665;28;20498;-65
2023/12/28 04:30:01;;;;;;;5.50;1.23;;;;;;;9.13;67.57;100627.19;5029965;28;20112;-73
2023/12/28 04:32:27;;;;;;;3.57;0.87;;;;;;;9.13;67.40;100625.41;5029054;28;20623;-64
2023/12/28 04:34:53;;;;;;;3.50;0.90;;;;;;;9.13;67.41;100629.81;5028539;28;20489;-65
2023/12/28 04:37:19;;;;;;;6.50;1.23;;;;;;;9.15;67.15;100631.69;5022326;28;20422;-65
2023/12/28 04:39:46;;;;;;;3.47;0.88;;;;;;;9.14;67.36;100635.13;5026717;28;20065;-65
2023/12/28 04:42:11;;;;;;;4.50;1.07;;;;;;;9.15;67.59;100620.22;5030180;28;20474;-65
2023/12/28 04:44:38;;;;;;;4.85;1.13;;;;;;;9.14;67.70;100616.69;5032371;28;20041;-64
2023/12/28 04:47:04;;;;;;;6.60;1.42;;;;;;;9.19;67.26;100637.97;5033761;28;20025;-65
2023/12/28 04:49:29;;;;;;;4.87;1.00;;;;;;;9.22;66.95;100627.59;5033623;28;20580;-65
2023/12/28 04:51:55;;;;;;;3.90;1.13;;;;;;;9.23;66.93;100629.38;5032685;28;20029;-65
2023/12/28 04:54:21;;;;;;;4.27;1.07;;;;;;;9.24;66.76;100634.72;5033411;28;20061;-66
2023/12/28 04:56:46;;;;;;;4.00;1.07;;;;;;;9.23;67.11;100642.53;5032048;28;20025;-65
2023/12/28 04:59:11;;;;;;;5.63;1.35;;;;;;;9.22;66.78;100636.41;5033228;28;20033;-65
2023/12/28 05:01:41;;;;;;;5.07;1.00;;;;;;;9.23;67.24;100646.09;5032090;28;20034;-65
2023/12/28 05:04:06;;;;;;;4.50;1.10;;;;;;;9.24;67.27;100644.34;5032974;28;20398;-66
2023/12/28 05:06:32;;;;;;;5.40;1.10;;;;;;;9.23;67.30;100642.53;5033282;28;20116;-72
2023/12/28 05:08:57;;;;;;;4.50;1.30;;;;;;;9.28;67.14;100668.28;5031929;28;20065;-64
2023/12/28 05:11:23;;;;;;;5.73;1.10;;;;;;;9.30;66.89;100677.16;5033138;28;20037;-67
2023/12/28 05:13:48;;;;;;;4.23;1.00;;;;;;;9.31;66.65;100670.16;5033418;28;20044;-66
2023/12/28 05:16:13;;;;;;;3.57;0.90;;;;;;;9.29;66.74;100677.09;5032962;28;20311;-64
2023/12/28 05:18:39;;;;;;;4.47;0.87;;;;;;;9.30;66.62;100671.00;5030605;28;20087;-64
2023/12/28 05:21:04;;;;;;;4.63;1.00;;;;;;;9.31;66.83;100678.06;5031805;28;20124;-67
2023/12/28 05:23:30;;;;;;;5.70;1.10;;;;;;;9.29;66.91;100669.19;5032208;28;20041;-65
2023/12/28 05:25:55;;;;;;;3.92;0.95;;;;;;;9.26;67.12;100674.31;5029780;28;20033;-73
2023/12/28 05:28:20;;;;;;;4.40;0.93;;;;;;;9.21;67.49;100681.13;5029570;28;20029;-65
2023/12/28 05:30:46;;;;;;;10.07;1.30;;;;;;;9.19;67.37;100677.50;5024725;28;20048;-64
2023/12/28 05:33:11;;;;;;;5.07;1.00;;;;;;;9.16;67.51;100678.28;5026587;28;20180;-63
2023/12/28 05:35:37;;;;;;;4.20;0.93;;;;;;;9.11;67.69;100692.97;5020557;28;20041;-65
2023/12/28 05:38:02;;;;;;;5.47;0.97;;;;;;;9.10;67.99;100689.44;5027561;28;20033;-64
2023/12/28 05:40:27;;;;;;;4.10;0.90;;;;;;;9.07;68.15;100699.84;5021956;28;20076;-71
2023/12/28 05:42:53;;;;;;;4.30;1.07;;;;;;;9.05;68.26;100698.84;5026226;28;20124;-64
2023/12/28 05:45:18;;;;;;;6.23;1.07;;;;;;;9.05;68.51;100696.22;5025809;28;20172;-64
2023/12/28 05:47:43;;;;;;;4.73;1.07;;;;;;;9.04;68.76;100704.03;5024362;28;20116;-64
2023/12/28 05:50:09;;;;;;;4.97;0.90;;;;;;;9.05;68.91;100701.50;5027533;28;20363;-65
2023/12/28 05:52:35;;;;;;;4.30;1.00;;;;;;;9.09;68.84;100708.69;5023175;28;20037;-65
2023/12/28 05:55:00;;;;;;;4.30;1.10;;;;;;;9.15;68.73;100715.09;5031875;28;20379;-63
2023/12/28 05:57:29;;;;;;;4.83;1.00;;;;;;;9.18;68.80;100718.75;5025322;28;20402;-64
2023/12/28 05:59:55;;;;;;;4.70;1.17;;;;;;;9.21;68.78;100710.09;5024728;28;20091;-66
2023/12/28 06:02:20;;;;;;;4.17;1.20;;;;;;;9.22;69.15;100709.28;5023375;28;20453;-63
2023/12/28 06:04:45;;;;;;;4.53;1.03;;;;;;;9.27;69.41;100716.56;5026940;28;20037;-64
2023/12/28 06:07:11;;;;;;;3.70;0.90;;;;;;;9.30;69.54;100719.31;5034505;28;20095;-64
2023/12/28 06:09:38;;;;;;;4.50;1.25;;;;;;;9.30;69.61;100726.31;5042400;28;20063;-63
2023/12/28 06:12:06;;;;;;;3.80;0.90;;;;;;;9.30;70.09;100726.31;5043593;28;20036;-64
2023/12/28 06:14:32;;;;;;;4.93;0.95;;;;;;;9.29;70.05;100735.06;5035147;28;20401;-63
2023/12/28 06:16:57;;;;;;;3.93;1.10;;;;;;;9.32;70.34;100732.59;5031138;28;20120;-64
2023/12/28 06:19:22;;;;;;;4.80;1.00;;;;;;;9.32;70.38;100727.31;5031693;28;20037;-65
2023/12/28 06:21:48;;;;;;;3.20;0.70;;;;;;;9.30;70.45;100735.16;5031273;28;20055;-65
2023/12/28 06:24:14;;;;;;;5.80;1.40;;;;;;;9.25;70.79;100741.03;5030793;28;20037;-65
2023/12/28 06:26:43;;;;;;;4.10;0.90;;;;;;;9.21;71.11;100733.81;5031436;28;20040;-64
2023/12/28 06:29:09;;;;;;;4.05;0.75;;;;;;;9.18;71.24;100731.03;5033020;28;20431;-62
2023/12/28 06:31:36;;;;;;;4.53;1.00;;;;;;;9.16;71.36;100728.34;5040728;28;20038;-63
2023/12/28 06:34:04;;;;;;;4.15;1.00;;;;;;;9.16;71.41;100735.34;5038116;28;20040;-69
2023/12/28 06:39:00;;;;;;;6.53;0.98;;;;;;;9.08;71.71;100721.78;5090339;27;20716;-63
2023/12/28 06:41:26;;;;;;;4.40;1.20;;;;;;;9.09;71.93;100731.50;5059529;28;20029;-69
2023/12/28 06:43:52;;;;;;;6.23;1.50;;;;;;;9.07;72.24;100728.81;5047615;28;20280;-68
2023/12/28 06:46:18;;;;;;;5.35;0.73;;;;;;;9.08;72.21;100732.34;5053769;28;20043;-69
2023/12/28 06:48:43;;;;;;;5.38;1.25;;;;;;;9.05;72.56;100738.38;5061957;28;20041;-69
2023/12/28 06:51:09;;;;;;;4.13;1.03;;;;;;;9.06;72.57;100744.56;5051200;28;20079;-65
2023/12/28 06:53:35;;;;;;;4.28;1.10;;;;;;;9.06;72.62;100745.47;5047255;28;20095;-64
2023/12/28 06:56:00;;;;;;;4.37;1.03;;;;;;;9.05;72.64;100742.75;5046953;28;20449;-67
2023/12/28 06:58:25;;;;;;;4.07;1.20;;;;;;;9.03;72.98;100742.66;5050036;28;20505;-66
2023/12/28 07:00:51;;;;;;;5.03;1.10;;;;;;;9.00;73.27;100739.91;5051649;28;20371;-75
2023/12/28 07:03:16;;;;;;;4.23;1.10;;;;;;;9.01;73.15;100740.81;5055433;28;20436;-64
2023/12/28 07:05:42;;;;;;;5.23;1.00;;;;;;;9.04;73.12;100746.19;5050577;28;20033;-66
2023/12/28 07:08:07;;;;;;;7.13;1.23;;;;;;;9.02;73.05;100743.50;5051594;28;20033;-72
2023/12/28 07:10:33;;;;;;;4.00;0.93;;;;;;;9.01;73.25;100752.25;5046872;28;20315;-65
2023/12/28 07:12:58;;;;;;;4.60;1.20;;;;;;;9.00;73.18;100755.69;5046739;28;20152;-65
2023/12/28 07:15:23;;;;;;;4.83;1.20;;;;;;;8.98;73.45;100766.97;5048392;28;20033;-64
2023/12/28 07:17:50;;;;;;;5.03;1.05;;;;;;;9.00;73.51;100765.34;5049825;28;20037;-67
2023/12/28 07:20:15;;;;;;;4.47;1.40;;;;;;;9.00;73.65;100773.22;5052664;28;20044;-65
2023/12/28 07:22:41;;;;;;;4.43;1.00;;;;;;;8.99;73.74;100777.59;5019618;28;20098;-65
2023/12/28 07:25:06;;;;;;;4.28;1.13;;;;;;;9.01;74.07;100775.94;5027331;28;20033;-66
2023/12/28 07:27:36;;;;;;;4.13;1.03;;;;;;;9.02;74.14;100779.50;5027357;28;20083;-65
2023/12/28 07:30:02;;;;;;;5.20;1.20;;;;;;;8.99;74.31;100777.59;5026879;28;20030;-66
2023/12/28 07:32:28;;;;;;;3.17;0.87;;;;;;;9.03;74.63;100778.63;5028109;28;20087;-77
2023/12/28 07:34:54;;;;;;;5.47;0.95;;;;;;;9.10;74.49;100780.75;5026586;28;20090;-65
2023/12/28 07:37:19;;;;;;;5.00;1.07;;;;;;;9.12;74.64;100778.19;5025573;28;20121;-68
2023/12/28 07:39:45;;;;;;;3.28;0.77;;;;;;;9.12;74.61;100780.81;5025870;28;20030;-65
2023/12/28 07:42:10;;;;;;;4.17;1.10;;;;;;;9.11;75.03;100774.66;5026899;28;20046;-67
2023/12/28 07:44:36;;;;;;;5.20;1.20;;;;;;;9.17;75.03;100780.22;5025409;28;20029;-67
2023/12/28 07:47:01;;;;;;;4.13;0.90;;;;;;;9.21;75.18;100797.97;5026942;28;20029;-64
2023/12/28 07:49:27;;;;;;;3.67;0.90;;;;;;;9.20;75.22;100798.78;5019702;28;20113;-67
2023/12/28 07:51:52;;;;;;;5.37;1.10;;;;;;;9.26;75.41;100793.81;5014513;28;20065;-69
2023/12/28 07:54:17;;;;;;;3.75;1.00;;;;;;;9.27;75.43;100800.91;5013822;28;20125;-66
2023/12/28 07:56:43;;;;;;;5.27;0.90;;;;;;;9.30;75.63;100802.75;5013201;28;20402;-69
2023/12/28 07:59:09;;;;;;;4.33;1.30;;;;;;;9.32;75.48;100807.28;5020640;28;20039;-69
2023/12/28 08:01:35;;;;;;;3.80;1.00;;;;;;;9.33;75.48;100816.06;5023512;28;20029;-65
2023/12/28 08:04:01;;;;;;;4.03;0.97;;;;;;;9.35;75.66;100806.50;5014345;28;20025;-65
2023/12/28 08:06:29;;;;;;;5.18;1.10;;;;;;;9.34;75.66;100802.97;5019692;28;20037;-67
2023/12/28 08:08:54;;;;;;;4.43;1.00;;;;;;;9.35;75.82;100801.25;5013781;28;20032;-71
2023/12/28 08:11:20;;;;;;;4.77;1.20;;;;;;;9.40;75.90;100812.91;5013646;28;20029;-66
2023/12/28 08:13:46;;;;;;;5.28;1.70;;;;;;;9.42;75.96;100821.81;5011928;28;20034;-66
2023/12/28 08:16:12;;;;;;;3.58;0.75;;;;;;;9.45;75.71;100819.28;5020433;28;20080;-66
2023/12/28 08:18:37;;;;;;;7.00;1.27;;;;;;;9.47;75.47;100822.91;5019864;28;20025;-65
2023/12/28 08:21:03;;;;;;;4.67;1.20;;;;;;;9.49;75.42;100832.69;5013091;28;20049;-67
2023/12/28 08:23:28;;;;;;;4.57;0.97;;;;;;;9.53;75.13;100825.81;5013182;28;20065;-66
2023/12/28 08:25:53;;;;;;;4.40;1.00;;;;;;;9.54;75.34;100839.06;5012752;28;20492;-66
2023/12/28 08:28:19;;;;;;;5.70;1.10;;;;;;;9.53;75.41;100831.09;5012586;28;20121;-68
2023/12/28 08:30:44;;;;;;;4.13;1.50;;;;;;;9.54;75.15;100838.16;5012519;28;20030;-68
2023/12/28 08:33:10;;;;;;;7.80;1.07;;;;;;;9.51;75.33;100832.75;5019401;28;20109;-64
2023/12/28 08:35:35;;;;;;;5.20;1.37;;;;;;;9.52;75.09;100826.66;5019104;28;20026;-69
2023/12/28 08:38:00;;;;;;;5.15;1.33;;;;;;;9.53;74.95;100845.16;5012856;28;20030;-68
2023/12/28 08:40:26;;;;;;;6.17;1.20;;;;;;;9.53;74.94;100824.06;5012401;28;20041;-65
2023/12/28 08:42:51;;;;;;;6.40;1.90;;;;;;;9.55;74.33;100829.44;5012548;28;20117;-65
2023/12/28 08:45:16;;;;;;;8.63;1.63;;;;;;;9.59;74.44;100831.38;5012371;28;20117;-65
2023/12/28 08:47:42;;;;;;;3.90;1.10;;;;;;;9.59;74.09;100839.28;5011067;28;20164;-63
2023/12/28 08:50:08;;;;;;;5.55;1.40;;;;;;;9.57;74.32;100838.28;5019197;28;20112;-75
2023/12/28 08:52:33;;;;;;;8.30;1.53;;;;;;;9.57;74.42;100846.22;5015533;28;20030;-69
2023/12/28 08:55:00;;;;;;;5.03;1.33;;;;;;;9.58;74.33;100842.75;5013553;28;20046;-65
2023/12/28 08:57:25;;;;;;;4.40;1.20;;;;;;;9.60;74.20;100834.91;5012393;28;20041;-66
2023/12/28 08:59:51;;;;;;;5.00;1.33;;;;;;;9.62;74.40;100849.09;5019248;28;20042;-64
2023/12/28 09:02:16;;;;;;;4.80;1.10;;;;;;;9.62;74.10;100843.81;5011399;28;20112;-67
2023/12/28 09:04:41;;;;;;;7.43;1.40;;;;;;;9.61;74.35;100858.72;5012014;28;20284;-66
2023/12/28 09:07:07;;;;;;;7.73;1.77;;;;;;;9.63;74.08;100857.03;5012208;28;20133;-64
2023/12/28 09:09:32;;;;;;;4.23;1.20;;;;;;;9.64;74.05;100853.59;5012193;28;20045;-65
2023/12/28 09:11:57;;;;;;;4.73;1.20;;;;;;;9.63;73.96;100857.03;5013030;28;20125;-65
2023/12/28 09:14:23;;;;;;;6.27;1.30;;;;;;;9.62;74.03;100865.78;5014144;28;20108;-67
2023/12/28 09:16:48;;;;;;;7.27;1.40;;;;;;;9.64;73.84;100855.31;5011919;28;20392;-65
2023/12/28 09:19:14;;;;;;;6.07;1.33;;;;;;;9.65;73.84;100862.41;5011710;28;20126;-67
2023/12/28 09:21:40;;;;;;;6.63;1.53;;;;;;;9.63;73.77;100856.13;5010723;28;20033;-67
2023/12/28 09:24:07;;;;;;;6.40;1.35;;;;;;;9.62;73.86;100860.50;5011722;28;20549;-67
2023/12/28 09:26:33;;;;;;;5.57;1.60;;;;;;;9.63;73.71;100862.31;5011262;28;20095;-65
2023/12/28 09:28:58;;;;;;;4.82;1.20;;;;;;;9.64;73.66;100858.84;5010343;28;20030;-64
2023/12/28 09:31:23;;;;;;;4.63;1.30;;;;;;;9.64;73.72;100858.84;5011923;28;20043;-65
2023/12/28 09:33:49;;;;;;;4.87;1.30;;;;;;;9.62;73.87;100857.88;5011597;28;20042;-66
2023/12/28 09:36:15;;;;;;;4.33;1.27;;;;;;;9.60;74.14;100862.19;5011880;28;20185;-67
2023/12/28 09:38:40;;;;;;;5.15;1.33;;;;;;;9.55;74.41;100847.88;5011492;28;20069;-64
2023/12/28 09:41:14;;;;;;;5.03;1.60;;;;;;;9.52;74.58;100853.91;5011816;28;20053;-69
2023/12/28 09:43:50;;;;;;;5.28;1.50;;;;;;;9.49;74.89;100852.88;5011739;28;20072;-65
2023/12/28 09:46:15;;;;;;;4.85;1.63;;;;;;;9.49;74.75;100851.13;5011313;28;20026;-64
2023/12/28 09:48:40;;;;;;;5.00;1.43;;;;;;;9.49;74.69;100850.22;5011501;28;20445;-66
2023/12/28 09:51:06;;;;;;;5.18;1.33;;;;;;;9.47;74.83;100852.78;5013301;28;20041;-66
2023/12/28 09:53:31;;;;;;;7.70;1.47;;;;;;;9.45;75.05;100843.94;5011169;28;20114;-66
2023/12/28 09:55:57;;;;;;;4.70;1.20;;;;;;;9.42;75.27;100843.75;5011130;28;20040;-66
2023/12/28 09:58:22;;;;;;;4.65;1.27;;;;;;;9.45;75.20;100843.03;5011414;28;20124;-67
2023/12/28 10:00:50;;;;;;;4.67;1.40;;;;;;;9.44;75.45;100841.22;5011185;28;20168;-70
2023/12/28 10:03:17;;;;;;;4.97;1.35;;;;;;;9.47;75.37;100844.88;5011439;28;20044;-67
2023/12/28 10:05:43;;;;;;;4.80;1.20;;;;;;;9.51;75.21;100843.31;5010948;28;20157;-67
2023/12/28 10:08:12;;;;;;;4.97;1.58;;;;;;;9.48;75.41;100840.50;5010066;28;20037;-66
2023/12/28 10:10:38;;;;;;;5.93;1.40;;;;;;;9.47;75.69;100834.34;5011023;28;20149;-65
2023/12/28 10:13:03;;;;;;;4.90;1.50;;;;;;;9.46;75.71;100835.19;5011087;28;20030;-63
2023/12/28 10:15:31;;;;;;;5.70;1.63;;;;;;;9.45;75.88;100843.94;5010866;28;20033;-66
2023/12/28 10:17:56;;;;;;;6.32;1.58;;;;;;;9.44;75.70;100838.56;5011168;28;20096;-64
2023/12/28 10:20:21;;;;;;;4.37;1.37;;;;;;;9.44;75.92;100844.75;5010661;28;20205;-64
2023/12/28 10:22:47;;;;;;;4.97;1.63;;;;;;;9.42;76.09;100846.41;5009257;28;20037;-65
2023/12/28 10:25:13;;;;;;;5.53;1.60;;;;;;;9.40;76.43;100841.91;5010285;28;20037;-66
2023/12/28 10:27:40;;;;;;;5.45;1.60;;;;;;;9.44;76.48;100838.56;5010297;28;20022;-67
2023/12/28 10:30:07;;;;;;;4.15;1.33;;;;;;;9.54;76.34;100827.63;5010207;28;20413;-64
2023/12/28 10:32:32;;;;;;;4.40;1.17;;;;;;;9.69;75.79;100830.97;5010284;28;20037;-65
2023/12/28 10:34:58;;;;;;;4.18;1.30;;;;;;;9.82;75.34;100843.88;5010049;28;20034;-64
2023/12/28 10:37:26;;;;;;;6.17;1.80;;;;;;;9.94;74.85;100841.78;5010043;28;20034;-66
2023/12/28 10:39:53;;;;;;;5.43;1.73;;;;;;;10.03;74.56;100837.75;5009882;28;20046;-64
2023/12/28 10:42:32;;;;;;;4.47;1.38;;;;;;;10.09;74.25;100836.28;5010230;28;20490;-65
2023/12/28 10:45:04;;;;;;;7.00;1.50;;;;;;;10.14;74.25;100825.94;5025036;28;20045;-65
2023/12/28 10:47:33;;;;;;;6.15;1.80;;;;;;;10.20;73.96;100836.81;5010141;28;20026;-64
2023/12/28 10:50:02;;;;;;;6.47;2.03;;;;;;;10.23;74.13;100836.94;5011606;28;20026;-64
2023/12/28 10:52:29;;;;;;;5.57;1.70;;;;;;;10.21;74.09;100831.56;5010246;28;20042;-70
2023/12/28 10:55:20;;;;;;;4.15;1.20;;;;;;;10.24;73.90;100823.81;5009721;28;20033;-64
2023/12/28 10:58:07;;;;;;;6.30;1.40;;;;;;;10.31;73.53;100825.84;5009844;28;20038;-66
2023/12/28 11:00:36;;;;;;;6.18;1.42;;;;;;;10.35;73.25;100817.25;5010599;28;20046;-66
2023/12/28 11:03:10;;;;;;;5.68;1.45;;;;;;;10.40;73.09;100825.38;5015925;28;20026;-64
2023/12/28 11:05:37;;;;;;;4.28;1.30;;;;;;;10.46;73.01;100830.88;5009956;28;20117;-65
2023/12/28 11:08:04;;;;;;;4.57;1.35;;;;;;;10.50;73.00;100832.84;5010160;28;20034;-67
2023/12/28 11:10:33;;;;;;;4.77;1.40;;;;;;;10.56;72.67;100825.16;5015514;28;20030;-66
2023/12/28 11:12:58;;;;;;;5.20;1.50;;;;;;;10.61;72.48;100820.97;5010626;28;20116;-65
2023/12/28 11:15:26;;;;;;;6.00;1.60;;;;;;;10.65;72.18;100828.22;5006787;28;20065;-68
2023/12/28 11:17:52;;;;;;;7.10;1.58;;;;;;;10.72;72.08;100830.25;5010926;28;20045;-65
2023/12/28 11:20:19;;;;;;;4.57;1.30;;;;;;;10.97;71.41;100818.03;5009794;28;20380;-66
2023/12/28 11:22:46;;;;;;;3.97;1.10;;;;;;;11.10;71.02;100812.44;5009530;28;20033;-65
2023/12/28 11:25:18;;;;;;;5.03;1.52;;;;;;;11.15;70.52;100819.66;5012296;28;20564;-67
2023/12/28 11:27:43;;;;;;;3.80;1.07;;;;;;;11.06;70.52;100810.47;5013130;28;20033;-68
2023/12/28 11:30:10;;;;;;;4.75;1.48;;;;;;;10.98;70.38;100817.22;5028248;28;20034;-66